createdAt,value
2022-09-21T00:00:46.202Z,98876.00
2022-09-21T00:06:08.522Z,98874.00
2022-09-21T00:11:39.810Z,98877.00
2022-09-21T00:17:05.531Z,98872.00
2022-09-21T00:22:24.637Z,98858.00
2022-09-21T00:28:17.187Z,98839.00
2022-09-21T00:33:30.987Z,98861.00
2022-09-21T00:39:08.357Z,98864.00
2022-09-21T00:44:27.421Z,98875.00
2022-09-21T00:49:30.904Z,98866.00
2022-09-21T00:54:41.878Z,98871.00
2022-09-21T00:59:46.338Z,98877.00
2022-09-21T01:04:55.410Z,98868.00
2022-09-21T01:10:57.477Z,98871.00
2022-09-21T01:16:44.347Z,98877.00
2022-09-21T01:22:19.211Z,98876.00
2022-09-21T01:28:00.286Z,98886.00
2022-09-21T01:33:28.730Z,98879.00
2022-09-21T01:38:57.487Z,98874.00
2022-09-21T01:44:17.944Z,98873.00
2022-09-21T01:49:30.767Z,98876.00
2022-09-21T01:54:49.308Z,98881.00
2022-09-21T01:59:57.930Z,98889.00
2022-09-21T02:05:11.710Z,98892.00
2022-09-21T02:10:28.695Z,98888.00
2022-09-21T02:22:05.280Z,98886.00
2022-09-21T02:27:40.245Z,98897.00
2022-09-21T02:33:07.407Z,98890.00
2022-09-21T02:38:46.798Z,98884.00
2022-09-21T02:44:14.580Z,98884.00
2022-09-21T02:49:26.453Z,98890.00
2022-09-21T02:54:36.719Z,98895.00
2022-09-21T02:59:40.671Z,98900.00
2022-09-21T03:04:56.926Z,98898.00
2022-09-21T03:10:02.160Z,98901.00
2022-09-21T03:15:06.048Z,98904.00
2022-09-21T03:20:09.003Z,98904.00
2022-09-21T03:25:13.183Z,98901.00
2022-09-21T03:30:15.963Z,98903.00
2022-09-21T03:35:23.168Z,98911.00
2022-09-21T03:40:27.474Z,98907.00
2022-09-21T03:45:30.216Z,98912.00
2022-09-21T03:50:32.947Z,98926.00
2022-09-21T03:55:35.839Z,98917.00
2022-09-21T04:00:39.298Z,98921.00
2022-09-21T04:05:57.473Z,98923.00
2022-09-21T04:11:13.519Z,98924.00
2022-09-21T04:16:24.649Z,98934.00
2022-09-21T04:21:31.285Z,98925.00
2022-09-21T04:26:48.258Z,98930.00
2022-09-21T04:32:16.778Z,98930.00
2022-09-21T04:37:41.006Z,98931.00
2022-09-21T04:43:05.881Z,98933.00
2022-09-21T04:48:18.836Z,98938.00
2022-09-21T04:53:34.336Z,98943.00
2022-09-21T04:58:48.066Z,98953.00
2022-09-21T05:04:10.940Z,98963.00
2022-09-21T05:09:32.362Z,98974.00
2022-09-21T05:14:35.036Z,98972.00
2022-09-21T05:19:37.671Z,98972.00
2022-09-21T05:24:40.348Z,98980.00
2022-09-21T05:29:43.254Z,98985.00
2022-09-21T05:35:08.685Z,98988.00
2022-09-21T05:40:13.011Z,98990.00
2022-09-21T05:45:18.239Z,98994.00
2022-09-21T05:50:32.922Z,98995.00
2022-09-21T05:55:55.031Z,98996.00
2022-09-21T06:01:03.799Z,98998.00
2022-09-21T06:06:20.569Z,98997.00
2022-09-21T06:11:40.217Z,98995.00
2022-09-21T06:17:05.622Z,98992.00
2022-09-21T06:22:23.159Z,99003.00
2022-09-21T06:27:42.947Z,98997.00
2022-09-21T06:33:06.780Z,99006.00
2022-09-21T06:38:44.443Z,99002.00
2022-09-21T06:44:12.721Z,98992.00
2022-09-21T06:49:22.941Z,99009.00
2022-09-21T06:54:31.208Z,98997.00
2022-09-21T06:59:34.288Z,99005.00
2022-09-21T07:04:49.903Z,99019.00
2022-09-21T07:10:17.153Z,99025.00
2022-09-21T07:21:07.911Z,99029.00
2022-09-21T07:26:26.990Z,99040.00
2022-09-21T07:37:20.007Z,99038.00
2022-09-21T07:42:40.387Z,99049.00
2022-09-21T07:48:01.237Z,99044.00
2022-09-21T07:53:20.559Z,99042.00
2022-09-21T07:58:54.402Z,99042.00
2022-09-21T08:04:19.193Z,99053.00
2022-09-21T08:09:23.013Z,99053.00
2022-09-21T08:14:27.542Z,99060.00
2022-09-21T08:19:30.475Z,99056.00
2022-09-21T08:24:33.599Z,99057.00
2022-09-21T08:29:40.914Z,99058.00
2022-09-21T08:34:58.784Z,99054.00
2022-09-21T08:40:14.608Z,99064.00
2022-09-21T08:45:20.221Z,99062.00
2022-09-21T08:50:25.674Z,99060.00
2022-09-21T08:55:28.419Z,99049.00
2022-09-21T09:00:35.445Z,99058.00
2022-09-21T09:06:08.176Z,99064.00
2022-09-21T09:11:27.385Z,99055.00
2022-09-21T09:17:52.647Z,99064.00
2022-09-21T09:23:27.424Z,99061.00
2022-09-21T09:29:09.256Z,99061.00
2022-09-21T09:34:21.581Z,99054.00
2022-09-21T09:39:31.651Z,99048.00
2022-09-21T09:44:50.775Z,99057.00
2022-09-21T09:50:02.284Z,99053.00
2022-09-21T09:55:39.684Z,99061.00
2022-09-21T10:00:42.878Z,99056.00
2022-09-21T10:05:50.480Z,99057.00
2022-09-21T10:11:16.496Z,99050.00
2022-09-21T10:16:27.470Z,99053.00
2022-09-21T10:21:58.687Z,99048.00
2022-09-21T10:27:22.905Z,99047.00
2022-09-21T10:32:48.558Z,99047.00
2022-09-21T10:38:40.138Z,99057.00
2022-09-21T10:43:58.867Z,99040.00
2022-09-21T10:49:18.856Z,99056.00
2022-09-21T10:54:26.789Z,99053.00
2022-09-21T10:59:32.449Z,99049.00
2022-09-21T11:04:58.715Z,99044.00
2022-09-21T11:10:24.783Z,99038.00
2022-09-21T11:16:17.361Z,99040.00
2022-09-21T11:22:04.213Z,99042.00
2022-09-21T11:27:39.697Z,99049.00
2022-09-21T11:33:28.123Z,99048.00
2022-09-21T11:39:27.454Z,99054.00
2022-09-21T11:44:58.750Z,99042.00
2022-09-21T11:50:29.709Z,99039.00
2022-09-21T11:55:36.564Z,99033.00
2022-09-21T12:00:57.732Z,99026.00
2022-09-21T12:06:35.804Z,99025.00
2022-09-21T12:12:22.635Z,99021.00
2022-09-21T12:18:00.043Z,99029.00
2022-09-21T12:23:28.640Z,99022.00
2022-09-21T12:29:25.271Z,99021.00
2022-09-21T12:34:37.978Z,99014.00
2022-09-21T12:39:51.657Z,99003.00
2022-09-21T12:45:06.597Z,98992.00
2022-09-21T12:50:21.158Z,98994.00
2022-09-21T12:55:35.284Z,98994.00
2022-09-21T13:01:20.871Z,98997.00
2022-09-21T13:07:25.273Z,98994.00
2022-09-21T13:13:10.447Z,98985.00
2022-09-21T13:18:43.857Z,98986.00
2022-09-21T13:24:01.498Z,98981.00
2022-09-21T13:29:25.323Z,98977.00
2022-09-21T13:34:37.023Z,98973.00
2022-09-21T13:39:55.805Z,98980.00
2022-09-21T13:45:26.162Z,98974.00
2022-09-21T13:50:44.714Z,98990.00
2022-09-21T13:56:22.068Z,98977.00
2022-09-21T14:07:12.722Z,98963.00
2022-09-21T14:12:41.343Z,98968.00
2022-09-21T14:18:28.040Z,98967.00
2022-09-21T14:23:34.345Z,98958.00
2022-09-21T14:29:01.127Z,98959.00
2022-09-21T14:34:18.511Z,98962.00
2022-09-21T14:39:45.449Z,98960.00
2022-09-21T14:44:52.955Z,98955.00
2022-09-21T14:50:07.520Z,98951.00
2022-09-21T14:55:35.752Z,98954.00
2022-09-21T15:00:39.981Z,98939.00
2022-09-21T15:05:44.942Z,98935.00
2022-09-21T15:11:23.581Z,98933.00
2022-09-21T15:16:50.409Z,98932.00
2022-09-21T15:22:41.116Z,98929.00
2022-09-21T15:27:55.211Z,98918.00
2022-09-21T15:33:33.440Z,98925.00
2022-09-21T15:39:04.592Z,98928.00
2022-09-21T15:44:32.416Z,98921.00
2022-09-21T15:49:41.310Z,98929.00
2022-09-21T15:54:46.036Z,98927.00
2022-09-21T15:59:48.727Z,98934.00
2022-09-21T16:05:06.287Z,98924.00
2022-09-21T16:11:02.903Z,98937.00
2022-09-21T16:16:18.429Z,98939.00
2022-09-21T16:22:00.728Z,98949.00
2022-09-21T16:27:21.651Z,98949.00
2022-09-21T16:32:42.222Z,98949.00
2022-09-21T16:38:04.626Z,98956.00
2022-09-21T16:43:27.869Z,98949.00
2022-09-21T16:48:38.002Z,98959.00
2022-09-21T16:54:00.577Z,98957.00
2022-09-21T16:59:21.656Z,98960.00
2022-09-21T17:04:30.651Z,98955.00
2022-09-21T17:09:35.588Z,98958.00
2022-09-21T17:14:41.912Z,98966.00
2022-09-21T17:19:50.161Z,98957.00
2022-09-21T17:24:56.256Z,98962.00
2022-09-21T17:30:03.562Z,98953.00
2022-09-21T17:35:20.210Z,98957.00
2022-09-21T17:40:26.429Z,98966.00
2022-09-21T17:45:45.123Z,98965.00
2022-09-21T17:50:59.589Z,98965.00
2022-09-21T17:56:49.785Z,98975.00
2022-09-21T18:02:15.482Z,98972.00
2022-09-21T18:07:46.241Z,98968.00
2022-09-21T18:13:21.271Z,98979.00
2022-09-21T18:19:00.357Z,98982.00
2022-09-21T18:24:34.934Z,98979.00
2022-09-21T18:29:41.360Z,98981.00
2022-09-21T18:35:32.831Z,98980.00
2022-09-21T18:41:22.143Z,98986.00
2022-09-21T18:47:07.902Z,98989.00
2022-09-21T18:52:40.232Z,98983.00
2022-09-21T18:57:59.555Z,98993.00
2022-09-21T19:03:27.935Z,98983.00
2022-09-21T19:09:35.466Z,98981.00
2022-09-21T19:15:17.889Z,98978.00
2022-09-21T19:21:13.433Z,98983.00
2022-09-21T19:26:42.708Z,98985.00
2022-09-21T19:32:05.823Z,98983.00
2022-09-21T19:37:25.296Z,98978.00
2022-09-21T19:43:24.713Z,98975.00
2022-09-21T19:48:57.109Z,98974.00
2022-09-21T19:54:30.082Z,98983.00
2022-09-21T19:59:45.259Z,98972.00
2022-09-21T20:05:23.531Z,98980.00
2022-09-21T20:11:21.199Z,98977.00
2022-09-21T20:16:56.262Z,98973.00
2022-09-21T20:22:39.203Z,98978.00
2022-09-21T20:27:56.000Z,98980.00
2022-09-21T20:33:18.702Z,98966.00
2022-09-21T20:38:40.707Z,98973.00
2022-09-21T20:43:58.923Z,98968.00
2022-09-21T20:49:11.456Z,98972.00
2022-09-21T20:54:20.395Z,98960.00
2022-09-21T20:59:24.748Z,98964.00
2022-09-21T21:04:54.595Z,98961.00
2022-09-21T21:09:58.864Z,98958.00
2022-09-21T21:15:01.497Z,98963.00
2022-09-21T21:20:05.803Z,98961.00
2022-09-21T21:25:08.942Z,98963.00
2022-09-21T21:30:12.194Z,98955.00
2022-09-21T21:35:14.942Z,98959.00
2022-09-21T21:40:17.751Z,98953.00
2022-09-21T21:45:21.679Z,98948.00
2022-09-21T21:50:27.501Z,98950.00
2022-09-21T21:55:30.201Z,98947.00
2022-09-21T22:00:32.951Z,98936.00
2022-09-21T22:05:57.642Z,98939.00
2022-09-21T22:11:22.521Z,98935.00
2022-09-21T22:16:50.365Z,98932.00
2022-09-21T22:22:24.345Z,98937.00
2022-09-21T22:27:44.723Z,98932.00
2022-09-21T22:33:08.624Z,98944.00
2022-09-21T22:38:24.282Z,98938.00
2022-09-21T22:43:45.941Z,98937.00
2022-09-21T22:49:02.632Z,98946.00
2022-09-21T22:54:13.677Z,98935.00
2022-09-21T22:59:17.339Z,98933.00
2022-09-21T23:04:31.805Z,98932.00
2022-09-21T23:09:35.064Z,98924.00
2022-09-21T23:14:37.808Z,98915.00
2022-09-21T23:19:40.477Z,98926.00
2022-09-21T23:24:43.413Z,98919.00
2022-09-21T23:29:46.148Z,98913.00
2022-09-21T23:34:48.850Z,98928.00
2022-09-21T23:39:51.499Z,98927.00
2022-09-21T23:44:54.164Z,98910.00
2022-09-21T23:49:56.823Z,98924.00
2022-09-21T23:54:59.485Z,98915.00
